Time;durP1;ratioP1;P1;durP2;ratioP2;P2;SDS_P1;SDS_P2;PMS_P1;PMS_P2;Temp;Humidity;BMP_temperature;BMP_pressure;BME280_temperature;BME280_humidity;BME280_pressure;Samples;Min_cycle;Max_cycle;Signal;HPM_P1;HPM_P2
2022/04/13 00:01:09;;;;;;;11.93;4.57;;;;;;;-150.27;100.00;61272.81;5187352;28;20109;-74
2022/04/13 00:03:42;;;;;;;10.83;3.43;;;;;;;-150.27;100.00;61272.81;5194746;28;20030;-73
2022/04/13 00:06:15;;;;;;;13.83;4.53;;;;;;;-150.27;100.00;61272.81;5185736;28;20042;-74
2022/04/13 00:08:46;;;;;;;8.63;4.00;;;;;;;-150.27;100.00;61272.81;5182243;28;20511;-74
2022/04/13 00:11:18;;;;;;;11.37;4.27;;;;;;;-150.27;100.00;61272.81;5191644;28;20026;-73
2022/04/13 00:13:49;;;;;;;10.33;3.87;;;;;;;-150.27;100.00;61272.81;5198922;28;20561;-73
2022/04/13 00:16:20;;;;;;;7.80;3.83;;;;;;;-150.27;100.00;61272.81;5190773;28;20038;-73
2022/04/13 00:18:52;;;;;;;9.80;4.87;;;;;;;-150.27;100.00;61272.81;5193513;28;20104;-74
2022/04/13 00:21:23;;;;;;;10.37;4.10;;;;;;;-150.27;100.00;61272.81;5182769;28;20061;-74
2022/04/13 00:23:56;;;;;;;14.03;4.23;;;;;;;-150.27;100.00;61272.81;5180811;28;20038;-74
2022/04/13 00:26:28;;;;;;;13.50;4.15;;;;;;;-150.27;100.00;61272.81;5189892;28;20107;-74
2022/04/13 00:28:59;;;;;;;10.77;4.03;;;;;;;-150.27;100.00;61272.81;5186463;28;20113;-74
2022/04/13 00:31:30;;;;;;;10.73;3.70;;;;;;;-150.27;100.00;61272.81;5181670;28;20034;-75
2022/04/13 00:34:02;;;;;;;10.33;4.00;;;;;;;-150.27;100.00;61272.81;5181381;28;20065;-73
2022/04/13 00:36:33;;;;;;;8.50;4.00;;;;;;;-150.27;100.00;61272.81;5181551;28;20048;-74
2022/04/13 00:39:04;;;;;;;12.03;4.47;;;;;;;-150.27;100.00;61272.81;5182690;28;20520;-74
2022/04/13 00:41:36;;;;;;;9.23;3.57;;;;;;;-150.27;100.00;61272.81;5181717;28;20452;-74
2022/04/13 00:44:09;;;;;;;6.60;3.70;;;;;;;-150.27;100.00;61272.81;5183317;28;20500;-74
2022/04/13 00:46:41;;;;;;;17.27;5.10;;;;;;;-150.27;100.00;61272.81;5183415;28;20078;-74
2022/04/13 00:49:14;;;;;;;12.57;4.23;;;;;;;-150.27;100.00;61272.81;5181264;28;20117;-74
2022/04/13 00:51:45;;;;;;;9.90;4.00;;;;;;;-150.27;100.00;61272.81;5183580;28;20030;-74
2022/04/13 00:54:18;;;;;;;12.10;3.80;;;;;;;-150.27;100.00;61272.81;5179519;28;20035;-74
2022/04/13 00:56:53;;;;;;;10.73;3.43;;;;;;;-150.27;100.00;61272.81;5192492;28;20056;-74
2022/04/13 00:59:25;;;;;;;9.67;3.33;;;;;;;-150.27;100.00;61272.81;5180016;28;21023;-75
2022/04/13 01:01:57;;;;;;;14.23;3.30;;;;;;;-150.27;100.00;61272.81;5181874;28;20769;-74
2022/04/13 01:04:29;;;;;;;16.70;4.73;;;;;;;-150.27;100.00;61272.81;5181096;28;20030;-74
2022/04/13 01:07:02;;;;;;;14.33;4.20;;;;;;;-150.27;100.00;61272.81;5182676;28;20039;-73
2022/04/13 01:09:34;;;;;;;13.63;3.87;;;;;;;-150.27;100.00;61272.81;5182534;28;20057;-74
2022/04/13 01:12:06;;;;;;;12.07;3.57;;;;;;;-150.27;100.00;61272.81;5181980;28;20149;-75
2022/04/13 01:14:37;;;;;;;14.40;4.07;;;;;;;-150.27;100.00;61272.81;5181481;28;20111;-74
2022/04/13 01:17:08;;;;;;;10.17;4.33;;;;;;;-150.27;100.00;61272.81;5193747;28;20566;-74
2022/04/13 01:19:40;;;;;;;8.47;3.63;;;;;;;-150.27;100.00;61272.81;5196134;28;20129;-74
2022/04/13 01:22:21;;;;;;;8.37;3.60;;;;;;;-150.27;100.00;61272.81;5185336;28;20038;-74
2022/04/13 01:24:52;;;;;;;9.63;4.50;;;;;;;-150.27;100.00;61272.81;5179947;28;20038;-75
2022/04/13 01:27:23;;;;;;;11.07;3.87;;;;;;;-150.27;100.00;61272.81;5179648;28;20037;-75
2022/04/13 01:29:55;;;;;;;13.20;5.13;;;;;;;-150.27;100.00;61272.81;5177935;28;20082;-75
2022/04/13 01:32:26;;;;;;;10.50;4.80;;;;;;;-150.27;100.00;61272.81;5191007;28;20339;-74
2022/04/13 01:34:57;;;;;;;12.30;4.43;;;;;;;-150.27;100.00;61272.81;5184010;28;20041;-74
2022/04/13 01:37:28;;;;;;;16.73;5.37;;;;;;;-150.27;100.00;61272.81;5179925;28;20042;-74
2022/04/13 01:40:00;;;;;;;11.03;4.90;;;;;;;-150.27;100.00;61272.81;5189466;28;20061;-74
2022/04/13 01:42:32;;;;;;;10.63;4.73;;;;;;;-150.27;100.00;61272.81;5186449;28;20409;-75
2022/04/13 01:45:05;;;;;;;10.50;5.10;;;;;;;-150.27;100.00;61272.81;5178578;28;20116;-74
2022/04/13 01:47:36;;;;;;;16.33;5.50;;;;;;;-150.27;100.00;61272.81;5179696;28;20045;-75
2022/04/13 01:50:09;;;;;;;13.47;5.20;;;;;;;-150.27;100.00;61272.81;5182246;28;20038;-74
2022/04/13 01:52:41;;;;;;;15.43;6.30;;;;;;;-150.27;100.00;61272.81;5187319;28;20409;-75
2022/04/13 01:55:13;;;;;;;15.13;6.93;;;;;;;-150.27;100.00;61272.81;5179795;28;20058;-75
2022/04/13 01:57:44;;;;;;;13.10;5.70;;;;;;;-150.27;100.00;61272.81;5198669;28;20034;-74
2022/04/13 02:00:16;;;;;;;17.60;5.97;;;;;;;-150.27;100.00;61272.81;5206749;28;20027;-74
2022/04/13 02:02:47;;;;;;;15.47;6.63;;;;;;;-150.27;100.00;61272.81;5208176;28;20065;-74
2022/04/13 02:05:19;;;;;;;11.03;4.97;;;;;;;-150.27;100.00;61272.81;5209064;28;20022;-74
2022/04/13 02:07:51;;;;;;;15.93;5.63;;;;;;;-150.27;100.00;61272.81;5193428;28;20026;-73
2022/04/13 02:10:22;;;;;;;14.57;6.57;;;;;;;-150.27;100.00;61272.81;5205102;28;20080;-74
2022/04/13 02:12:54;;;;;;;13.00;5.37;;;;;;;-150.27;100.00;61272.81;5191543;28;20042;-73
2022/04/13 02:15:25;;;;;;;10.23;5.33;;;;;;;-150.27;100.00;61272.81;5192271;28;20029;-74
2022/04/13 02:17:56;;;;;;;13.40;5.77;;;;;;;-150.27;100.00;61272.81;5201980;28;20025;-74
2022/04/13 02:20:28;;;;;;;15.87;6.07;;;;;;;-150.27;100.00;61272.81;5201502;28;20107;-74
2022/04/13 02:23:01;;;;;;;12.03;5.13;;;;;;;-150.27;100.00;61272.81;5206944;28;20026;-74
2022/04/13 02:25:36;;;;;;;12.20;5.88;;;;;;;-150.27;100.00;61272.81;5207177;28;20023;-74
2022/04/13 02:28:07;;;;;;;13.13;6.40;;;;;;;-150.27;100.00;61272.81;5209686;28;20030;-74
2022/04/13 02:30:39;;;;;;;16.40;5.63;;;;;;;-150.27;100.00;61272.81;5208838;28;20083;-74
2022/04/13 02:33:10;;;;;;;14.60;5.73;;;;;;;-150.27;100.00;61272.81;5207766;28;20037;-73
2022/04/13 02:35:41;;;;;;;14.03;6.17;;;;;;;-150.27;100.00;61272.81;5208003;28;20217;-74
2022/04/13 02:38:13;;;;;;;12.47;4.93;;;;;;;-150.27;100.00;61272.81;5207570;28;20519;-74
2022/04/13 02:40:44;;;;;;;10.17;5.73;;;;;;;-150.27;100.00;61272.81;5203714;28;20044;-74
2022/04/13 02:43:16;;;;;;;14.67;5.93;;;;;;;-150.27;100.00;61272.81;5202521;28;20033;-74
2022/04/13 02:45:47;;;;;;;12.83;7.17;;;;;;;-150.27;100.00;61272.81;5206533;28;20038;-74
2022/04/13 02:48:18;;;;;;;11.90;6.47;;;;;;;-150.27;100.00;61272.81;5205172;28;20148;-74
2022/04/13 02:50:49;;;;;;;16.10;6.33;;;;;;;-150.27;100.00;61272.81;5207365;28;20037;-74
2022/04/13 02:53:22;;;;;;;12.93;6.27;;;;;;;-150.27;100.00;61272.81;5200611;28;20382;-74
2022/04/13 02:55:53;;;;;;;17.63;5.90;;;;;;;-150.27;100.00;61272.81;5195535;28;20041;-74
2022/04/13 02:58:24;;;;;;;16.20;5.90;;;;;;;-150.27;100.00;61272.81;5203531;28;20091;-74
2022/04/13 03:00:56;;;;;;;8.23;5.50;;;;;;;-150.27;100.00;61272.81;5206093;28;20030;-74
2022/04/13 03:03:27;;;;;;;12.20;5.53;;;;;;;-150.27;100.00;61272.81;5203860;28;20042;-75
2022/04/13 03:05:58;;;;;;;11.77;4.80;;;;;;;-150.27;100.00;61272.81;5209091;28;20033;-74
2022/04/13 03:08:30;;;;;;;15.13;5.53;;;;;;;-150.27;100.00;61272.81;5198295;28;20473;-74
2022/04/13 03:11:01;;;;;;;10.87;5.50;;;;;;;-150.27;100.00;61272.81;5204031;28;20409;-74
2022/04/13 03:13:32;;;;;;;10.33;5.70;;;;;;;-150.27;100.00;61272.81;5200895;28;20040;-74
2022/04/13 03:16:04;;;;;;;13.73;5.20;;;;;;;-150.27;100.00;61272.81;5201435;28;20084;-73
2022/04/13 03:18:35;;;;;;;15.57;6.30;;;;;;;-150.27;100.00;61272.81;5203150;28;20040;-73
2022/04/13 03:21:06;;;;;;;14.40;6.90;;;;;;;-150.27;100.00;61272.81;5208802;28;20433;-74
2022/04/13 03:23:38;;;;;;;11.97;5.80;;;;;;;-150.27;100.00;61272.81;5193955;28;20650;-74
2022/04/13 03:26:09;;;;;;;11.83;5.47;;;;;;;-150.27;100.00;61272.81;5204741;28;20022;-74
2022/04/13 03:28:40;;;;;;;10.73;5.67;;;;;;;-150.27;100.00;61272.81;5197384;28;20169;-75
2022/04/13 03:31:11;;;;;;;12.13;5.13;;;;;;;-150.27;100.00;61272.81;5201664;28;20289;-73
2022/04/13 03:33:43;;;;;;;12.70;5.33;;;;;;;-150.27;100.00;61272.81;5208880;28;20056;-75
2022/04/13 03:36:16;;;;;;;14.47;5.90;;;;;;;-150.27;100.00;61272.81;5207474;28;20431;-73
2022/04/13 03:38:47;;;;;;;11.17;5.93;;;;;;;-150.27;100.00;61272.81;5194492;28;20034;-73
2022/04/13 03:41:18;;;;;;;12.33;5.67;;;;;;;-150.27;100.00;61272.81;5208036;28;20703;-74
2022/04/13 03:43:50;;;;;;;16.20;6.10;;;;;;;-150.27;100.00;61272.81;5207979;28;20358;-74
2022/04/13 03:46:21;;;;;;;15.03;5.80;;;;;;;-150.27;100.00;61272.81;5193784;28;20109;-75
2022/04/13 03:48:52;;;;;;;13.30;6.13;;;;;;;-150.27;100.00;61272.81;5209824;28;20396;-72
2022/04/13 03:51:24;;;;;;;10.67;5.90;;;;;;;-150.27;100.00;61272.81;5198650;28;20065;-74
2022/04/13 03:53:55;;;;;;;13.07;5.90;;;;;;;-150.27;100.00;61272.81;5201147;28;20033;-75
2022/04/13 03:56:28;;;;;;;12.33;5.93;;;;;;;-150.27;100.00;61272.81;5204846;28;20030;-75
2022/04/13 03:59:00;;;;;;;12.27;6.60;;;;;;;-150.27;100.00;61272.81;5206035;28;20034;-73
2022/04/13 04:01:32;;;;;;;12.93;6.57;;;;;;;-150.27;100.00;61272.81;5197292;28;20037;-73
2022/04/13 04:04:03;;;;;;;10.63;5.53;;;;;;;-150.27;100.00;61272.81;5211643;28;20461;-73
2022/04/13 04:06:34;;;;;;;10.93;5.50;;;;;;;-150.27;100.00;61272.81;5211927;28;20500;-75
2022/04/13 04:09:06;;;;;;;15.17;6.47;;;;;;;-150.27;100.00;61272.81;5207414;28;20273;-74
2022/04/13 04:11:37;;;;;;;10.93;5.93;;;;;;;-150.27;100.00;61272.81;5199492;28;20038;-71
2022/04/13 04:14:08;;;;;;;10.07;5.87;;;;;;;-150.27;100.00;61272.81;5206065;28;20116;-73
2022/04/13 04:16:39;;;;;;;12.53;6.47;;;;;;;-150.27;100.00;61272.81;5202885;28;20034;-74
2022/04/13 04:19:11;;;;;;;12.40;6.60;;;;;;;-150.27;100.00;61272.81;5203628;28;20107;-73
2022/04/13 04:21:42;;;;;;;12.93;6.80;;;;;;;-150.27;100.00;61272.81;5212381;28;20037;-74
2022/04/13 04:24:14;;;;;;;16.83;7.77;;;;;;;-150.27;100.00;61272.81;5209678;28;20029;-73
2022/04/13 04:26:45;;;;;;;12.67;6.90;;;;;;;-150.27;100.00;61272.81;5201526;28;20097;-73
2022/04/13 04:29:16;;;;;;;16.27;7.97;;;;;;;-150.27;100.00;61272.81;5204980;28;20049;-74
2022/04/13 04:31:50;;;;;;;11.70;7.60;;;;;;;-150.27;100.00;61272.81;5211879;28;20037;-74
2022/04/13 04:34:23;;;;;;;;;;;;;;;-150.27;100.00;61272.81;5212124;28;20029;-74
2022/04/13 04:36:54;;;;;;;13.67;6.87;;;;;;;-150.27;100.00;61272.81;5201683;28;19926;-74
2022/04/13 04:39:25;;;;;;;19.03;8.50;;;;;;;-150.27;100.00;61272.81;5201851;28;20049;-74
2022/04/13 04:41:57;;;;;;;14.20;7.40;;;;;;;-150.27;100.00;61272.81;5212051;28;20105;-75
2022/04/13 04:44:28;;;;;;;13.23;7.90;;;;;;;-150.27;100.00;61272.81;5200622;28;20088;-74
2022/04/13 04:46:59;;;;;;;14.20;7.70;;;;;;;-150.27;100.00;61272.81;5209132;28;20026;-74
2022/04/13 04:49:30;;;;;;;13.03;7.97;;;;;;;-150.27;100.00;61272.81;5209208;28;20057;-74
2022/04/13 04:52:02;;;;;;;12.47;9.23;;;;;;;-150.27;100.00;61272.81;5204291;28;20028;-72
2022/04/13 04:54:33;;;;;;;15.90;8.50;;;;;;;-150.27;100.00;61272.81;5184350;28;20062;-74
2022/04/13 04:57:04;;;;;;;15.27;9.43;;;;;;;-150.27;100.00;61272.81;5195938;28;20080;-74
2022/04/13 04:59:36;;;;;;;21.20;9.97;;;;;;;-150.27;100.00;61272.81;5209110;28;20124;-73
2022/04/13 05:02:07;;;;;;;14.50;8.87;;;;;;;-150.27;100.00;61272.81;5208809;28;20025;-74
2022/04/13 05:04:38;;;;;;;20.60;9.90;;;;;;;-150.27;100.00;61272.81;5210576;28;20121;-73
2022/04/13 05:07:09;;;;;;;19.13;10.57;;;;;;;-150.27;100.00;61272.81;5209881;28;20470;-74
2022/04/13 05:09:41;;;;;;;20.70;9.93;;;;;;;-150.27;100.00;61272.81;5207865;28;20117;-72
2022/04/13 05:12:13;;;;;;;16.57;9.53;;;;;;;-150.27;100.00;61272.81;5207281;28;20034;-74
2022/04/13 05:14:44;;;;;;;17.93;10.83;;;;;;;-150.27;100.00;61272.81;5202151;28;20607;-74
2022/04/13 05:17:16;;;;;;;18.80;11.03;;;;;;;-150.27;100.00;61272.81;5206591;28;20087;-74
2022/04/13 05:19:47;;;;;;;24.57;10.80;;;;;;;-150.27;100.00;61272.81;5199868;28;20030;-73
2022/04/13 05:22:19;;;;;;;15.83;10.57;;;;;;;-150.27;100.00;61272.81;5209017;28;20115;-72
2022/04/13 05:24:51;;;;;;;19.97;11.07;;;;;;;-150.27;100.00;61272.81;5205470;28;20499;-72
2022/04/13 05:27:22;;;;;;;20.50;11.47;;;;;;;-150.27;100.00;61272.81;5209697;28;20087;-71
2022/04/13 05:29:53;;;;;;;21.23;13.07;;;;;;;-150.27;100.00;61272.81;5206649;28;20022;-73
2022/04/13 05:32:25;;;;;;;19.33;11.83;;;;;;;-150.27;100.00;61272.81;5209930;28;20218;-72
2022/04/13 05:34:59;;;;;;;20.50;12.67;;;;;;;-150.27;100.00;61272.81;5207428;28;20037;-72
2022/04/13 05:37:30;;;;;;;22.40;13.10;;;;;;;-150.27;100.00;61272.81;5206441;28;20030;-73
2022/04/13 05:40:01;;;;;;;22.70;12.20;;;;;;;-150.27;100.00;61272.81;5207569;28;20026;-73
2022/04/13 05:42:33;;;;;;;27.47;14.57;;;;;;;-150.27;100.00;61272.81;5206512;28;20104;-74
2022/04/13 05:45:04;;;;;;;21.23;13.67;;;;;;;-150.27;100.00;61272.81;5207610;28;20064;-73
2022/04/13 05:47:37;;;;;;;27.93;14.90;;;;;;;-150.27;100.00;61272.81;5205743;28;20066;-75
2022/04/13 05:50:10;;;;;;;25.83;15.07;;;;;;;-150.27;100.00;61272.81;5209757;28;20034;-74
2022/04/13 05:52:42;;;;;;;23.10;15.07;;;;;;;-150.27;100.00;61272.81;5198590;28;20459;-72
2022/04/13 05:55:14;;;;;;;21.33;14.47;;;;;;;-150.27;100.00;61272.81;5180445;28;20039;-71
2022/04/13 05:57:46;;;;;;;26.17;15.97;;;;;;;-150.27;100.00;61272.81;5185575;28;20045;-73
2022/04/13 06:00:17;;;;;;;21.77;14.93;;;;;;;-150.27;100.00;61272.81;5193565;28;20030;-74
2022/04/13 06:02:49;;;;;;;20.07;15.00;;;;;;;-150.27;100.00;61272.81;5180350;28;20038;-73
2022/04/13 06:05:21;;;;;;;26.80;15.73;;;;;;;-150.27;100.00;61272.81;5182063;28;20093;-73
2022/04/13 06:07:53;;;;;;;23.27;15.70;;;;;;;-150.27;100.00;61272.81;5165059;28;20571;-71
2022/04/13 06:10:24;;;;;;;25.63;15.80;;;;;;;-150.27;100.00;61272.81;5188415;28;20030;-73
2022/04/13 06:12:56;;;;;;;23.60;14.17;;;;;;;-150.27;100.00;61272.81;5184808;28;20061;-73
2022/04/13 06:15:28;;;;;;;22.00;14.90;;;;;;;-150.27;100.00;61272.81;5180002;28;20089;-75
2022/04/13 06:18:00;;;;;;;25.40;15.43;;;;;;;-150.27;100.00;61272.81;5179693;28;20049;-73
2022/04/13 06:20:31;;;;;;;22.13;15.23;;;;;;;-150.27;100.00;61272.81;5183438;28;20034;-73
2022/04/13 06:23:02;;;;;;;24.20;16.83;;;;;;;-150.27;100.00;61272.81;5179975;28;20038;-73
2022/04/13 06:25:34;;;;;;;20.00;14.57;;;;;;;-150.27;100.00;61272.81;5181430;28;20409;-74
2022/04/13 06:28:05;;;;;;;27.70;15.97;;;;;;;-150.27;100.00;61272.81;5181163;28;20038;-73
2022/04/13 06:30:36;;;;;;;27.97;15.10;;;;;;;-150.27;100.00;61272.81;5162818;28;20080;-73
2022/04/13 06:33:08;;;;;;;19.53;14.97;;;;;;;-150.27;100.00;61272.81;5182504;28;20692;-73
2022/04/13 06:35:39;;;;;;;25.53;14.60;;;;;;;-150.27;100.00;61272.81;5182271;28;20030;-73
2022/04/13 06:38:10;;;;;;;26.43;15.83;;;;;;;-150.27;100.00;61272.81;5195533;28;20112;-74
2022/04/13 06:40:42;;;;;;;20.47;14.30;;;;;;;-150.27;100.00;61272.81;5188576;28;20248;-74
2022/04/13 06:43:13;;;;;;;20.50;14.43;;;;;;;-150.27;100.00;61272.81;5195063;28;20828;-74
2022/04/13 06:45:44;;;;;;;32.43;16.67;;;;;;;-150.27;100.00;61272.81;5186218;28;20074;-74
2022/04/13 06:48:15;;;;;;;24.30;14.63;;;;;;;-150.27;100.00;61272.81;5187678;28;20033;-74
2022/04/13 06:50:47;;;;;;;26.07;14.97;;;;;;;-150.27;100.00;61272.81;5180783;28;20034;-74
2022/04/13 06:53:18;;;;;;;23.83;15.03;;;;;;;-150.27;100.00;61272.81;5180601;28;20037;-74
2022/04/13 06:55:50;;;;;;;23.67;15.37;;;;;;;-150.27;100.00;61272.81;5193544;28;20057;-74
2022/04/13 06:58:21;;;;;;;21.60;15.23;;;;;;;-150.27;100.00;61272.81;5185993;28;20198;-75
2022/04/13 07:00:52;;;;;;;25.33;15.23;;;;;;;-150.27;100.00;61272.81;5189158;28;20096;-70
2022/04/13 07:03:24;;;;;;;20.77;14.20;;;;;;;-150.27;100.00;61272.81;5186186;28;20042;-78
2022/04/13 07:05:55;;;;;;;26.37;16.30;;;;;;;-150.27;100.00;61272.81;5193760;28;20056;-75
2022/04/13 07:08:27;;;;;;;22.77;16.20;;;;;;;-150.27;100.00;61272.81;5188803;28;20452;-74
2022/04/13 07:10:58;;;;;;;29.63;17.47;;;;;;;-150.27;100.00;61272.81;5190280;28;20571;-75
2022/04/13 07:13:31;;;;;;;28.27;16.30;;;;;;;-150.27;100.00;61272.81;5184953;28;20038;-75
2022/04/13 07:16:03;;;;;;;21.20;14.47;;;;;;;-150.27;100.00;61272.81;5193633;28;20060;-75
2022/04/13 07:18:34;;;;;;;24.90;16.20;;;;;;;-150.27;100.00;61272.81;5184895;28;20109;-72
2022/04/13 07:21:06;;;;;;;27.37;16.73;;;;;;;-150.27;100.00;61272.81;5181739;28;20096;-75
2022/04/13 07:23:37;;;;;;;30.77;16.00;;;;;;;-150.27;100.00;61272.81;5190463;28;20049;-75
2022/04/13 07:26:08;;;;;;;24.03;15.30;;;;;;;-150.27;100.00;61272.81;5187717;28;20041;-74
2022/04/13 07:28:39;;;;;;;24.77;16.57;;;;;;;-150.27;100.00;61272.81;5189302;28;20033;-75
2022/04/13 07:31:11;;;;;;;27.00;16.33;;;;;;;-150.27;100.00;61272.81;5189780;28;20046;-71
2022/04/13 07:33:42;;;;;;;23.83;15.47;;;;;;;-150.27;100.00;61272.81;5192755;28;20065;-73
2022/04/13 07:36:13;;;;;;;23.63;15.90;;;;;;;-150.27;100.00;61272.81;5197106;28;20103;-72
2022/04/13 07:38:44;;;;;;;25.43;15.57;;;;;;;-150.27;100.00;61272.81;5196294;28;20166;-72
2022/04/13 07:41:16;;;;;;;21.60;14.63;;;;;;;-150.27;100.00;61272.81;5194937;28;20037;-72
2022/04/13 07:43:49;;;;;;;23.97;14.50;;;;;;;-150.27;100.00;61272.81;5197336;28;21486;-72
2022/04/13 07:46:21;;;;;;;19.57;14.27;;;;;;;-150.27;100.00;61272.81;5196083;28;20044;-73
2022/04/13 07:48:54;;;;;;;23.47;15.07;;;;;;;-150.27;100.00;61272.81;5184456;28;20170;-74
2022/04/13 07:51:25;;;;;;;20.87;14.10;;;;;;;-150.27;100.00;61272.81;5195391;28;20022;-73
2022/04/13 07:53:57;;;;;;;25.87;14.17;;;;;;;-150.27;100.00;61272.81;5195996;28;20034;-74
2022/04/13 07:56:29;;;;;;;21.13;13.70;;;;;;;-150.27;100.00;61272.81;5196933;28;20382;-72
2022/04/13 07:59:00;;;;;;;23.13;14.07;;;;;;;-150.27;100.00;61272.81;5179031;28;20041;-72
2022/04/13 08:01:31;;;;;;;24.83;15.73;;;;;;;-150.27;100.00;61272.81;5190170;28;20041;-72
2022/04/13 08:04:02;;;;;;;20.93;15.30;;;;;;;-150.27;100.00;61272.81;5189481;28;20029;-72
2022/04/13 08:06:34;;;;;;;26.20;14.83;;;;;;;-150.27;100.00;61272.81;5189239;28;20058;-72
2022/04/13 08:09:05;;;;;;;21.90;13.00;;;;;;;-150.27;100.00;61272.81;5185528;28;20065;-72
2022/04/13 08:11:36;;;;;;;22.20;14.47;;;;;;;-150.27;100.00;61272.81;5193122;28;20511;-71
2022/04/13 08:14:08;;;;;;;20.87;13.27;;;;;;;-150.27;100.00;61272.81;5196288;28;20436;-72
2022/04/13 08:16:39;;;;;;;20.70;12.90;;;;;;;-150.27;100.00;61272.81;5189079;28;20042;-72
2022/04/13 08:19:10;;;;;;;15.20;11.37;;;;;;;-150.27;100.00;61272.81;5195639;28;20038;-72
2022/04/13 08:21:41;;;;;;;16.67;11.43;;;;;;;-150.27;100.00;61272.81;5186672;28;20042;-73
2022/04/13 08:24:13;;;;;;;21.87;12.73;;;;;;;-150.27;100.00;61272.81;5181547;28;21203;-73
2022/04/13 08:26:45;;;;;;;17.73;9.57;;;;;;;-150.27;100.00;61272.81;5178300;28;20042;-73
2022/04/13 08:29:16;;;;;;;21.40;10.67;;;;;;;-150.27;100.00;61272.81;5180622;28;20056;-74
2022/04/13 08:31:47;;;;;;;16.50;9.97;;;;;;;-150.27;100.00;61272.81;5183801;28;20030;-71
2022/04/13 08:34:18;;;;;;;15.50;10.60;;;;;;;-150.27;100.00;61272.81;5192406;28;20045;-73
2022/04/13 08:36:50;;;;;;;16.37;8.30;;;;;;;-150.27;100.00;61272.81;5197267;28;20061;-72
2022/04/13 08:39:21;;;;;;;16.77;9.27;;;;;;;-150.27;100.00;61272.81;5209059;28;20038;-72
2022/04/13 08:42:06;;;;;;;16.80;8.40;;;;;;;-150.27;100.00;61272.81;5209817;28;20025;-71
2022/04/13 08:44:46;;;;;;;16.80;8.90;;;;;;;-150.27;100.00;61272.81;5190392;28;20038;-71
2022/04/13 08:47:23;;;;;;;16.63;8.93;;;;;;;-150.27;100.00;61272.81;5212017;28;20041;-71
2022/04/13 08:49:55;;;;;;;19.20;9.30;;;;;;;-150.27;100.00;61272.81;5211319;28;20036;-72
2022/04/13 08:52:31;;;;;;;13.53;8.60;;;;;;;-150.27;100.00;61272.81;5211323;28;20064;-72
2022/04/13 08:55:05;;;;;;;16.17;8.63;;;;;;;-150.27;100.00;61272.81;5210588;28;20018;-72
2022/04/13 08:57:39;;;;;;;11.50;7.87;;;;;;;-150.27;100.00;61272.81;5209569;28;20088;-72
2022/04/13 09:00:15;;;;;;;12.38;8.75;;;;;;;-150.27;100.00;61272.81;5209777;28;20025;-72
2022/04/13 09:02:47;;;;;;;11.17;8.80;;;;;;;-150.27;100.00;61272.81;5211564;28;20572;-71
2022/04/13 09:05:31;;;;;;;14.17;9.47;;;;;;;-150.27;100.00;61272.81;5212884;28;20085;-72
2022/04/13 09:08:09;;;;;;;16.15;10.18;;;;;;;-150.27;100.00;61272.81;5212815;28;20473;-72
2022/04/13 09:10:41;;;;;;;20.27;10.10;;;;;;;-150.27;100.00;61272.81;5210649;28;20088;-72
2022/04/13 09:13:13;;;;;;;15.93;9.43;;;;;;;-150.27;100.00;61272.81;5210949;28;20074;-72
2022/04/13 09:15:44;;;;;;;24.10;11.17;;;;;;;-150.27;100.00;61272.81;5209277;28;20068;-72
2022/04/13 09:18:16;;;;;;;19.10;11.07;;;;;;;-150.27;100.00;61272.81;5211070;28;20029;-72
2022/04/13 09:20:47;;;;;;;17.17;10.30;;;;;;;-150.27;100.00;61272.81;5210458;28;20485;-71
2022/04/13 09:23:20;;;;;;;18.70;11.53;;;;;;;-150.27;100.00;61272.81;5210237;28;20033;-73
2022/04/13 09:25:54;;;;;;;17.50;10.13;;;;;;;-150.27;100.00;61272.81;5210414;28;20053;-71
2022/04/13 09:28:26;;;;;;;17.23;10.68;;;;;;;-150.27;100.00;61272.81;5210069;28;20037;-72
2022/04/13 09:30:57;;;;;;;20.70;11.10;;;;;;;-150.27;100.00;61272.81;5210751;28;20026;-71
2022/04/13 09:33:29;;;;;;;12.50;9.33;;;;;;;-150.27;100.00;61272.81;5210163;28;20321;-73
2022/04/13 09:36:00;;;;;;;15.30;10.03;;;;;;;-150.27;100.00;61272.81;5210764;28;20032;-72
2022/04/13 09:38:32;;;;;;;16.73;10.03;;;;;;;-150.27;100.00;61272.81;5209613;28;20030;-72
2022/04/13 09:41:10;;;;;;;15.43;10.40;;;;;;;-150.27;100.00;61272.81;5209255;28;20026;-72
2022/04/13 09:43:53;;;;;;;16.10;10.30;;;;;;;-150.27;100.00;61272.81;5210204;28;20044;-71
2022/04/13 09:46:29;;;;;;;16.63;9.97;;;;;;;-150.27;100.00;61272.81;5211364;28;20065;-72
2022/04/13 09:49:17;;;;;;;18.83;11.03;;;;;;;-150.27;100.00;61272.81;5208696;28;20388;-72
2022/04/13 09:51:49;;;;;;;16.83;11.73;;;;;;;-150.27;100.00;61272.81;5208561;28;20452;-72
2022/04/13 09:54:25;;;;;;;17.50;11.67;;;;;;;-150.27;100.00;61272.81;5207755;28;20463;-72
2022/04/13 09:56:56;;;;;;;19.53;11.90;;;;;;;-150.27;100.00;61272.81;5209029;28;20777;-72
2022/04/13 09:59:30;;;;;;;16.37;11.27;;;;;;;-150.27;100.00;61272.81;5209691;28;20026;-73
2022/04/13 10:02:01;;;;;;;14.15;11.82;;;;;;;-150.27;100.00;61272.81;5210418;28;20495;-73
2022/04/13 10:04:36;;;;;;;17.07;13.33;;;;;;;-150.27;100.00;61272.81;5208174;28;20030;-73
2022/04/13 10:07:15;;;;;;;20.63;12.97;;;;;;;-150.27;100.00;61272.81;5210173;28;20038;-73
2022/04/13 10:09:47;;;;;;;18.83;12.03;;;;;;;-150.27;100.00;61272.81;5208179;28;20052;-73
2022/04/13 10:12:19;;;;;;;17.30;11.57;;;;;;;-150.27;100.00;61272.81;5209381;28;20049;-73
2022/04/13 10:14:50;;;;;;;24.83;13.10;;;;;;;-150.27;100.00;61272.81;5209840;28;20077;-74
2022/04/13 10:17:22;;;;;;;18.83;13.23;;;;;;;-150.27;100.00;61272.81;5209618;28;20014;-70
2022/04/13 10:19:58;;;;;;;20.83;12.23;;;;;;;-150.27;100.00;61272.81;5210028;28;20028;-73
2022/04/13 10:22:30;;;;;;;17.90;13.10;;;;;;;-150.27;100.00;61272.81;5206313;28;20025;-72
2022/04/13 10:25:26;;;;;;;18.97;13.40;;;;;;;-150.27;100.00;61272.81;5209024;28;20026;-72
2022/04/13 10:28:00;;;;;;;20.20;12.57;;;;;;;-150.27;100.00;61272.81;5212689;28;20077;-71
2022/04/13 10:30:36;;;;;;;20.93;11.97;;;;;;;-150.27;100.00;61272.81;5207152;28;20049;-72
2022/04/13 10:33:12;;;;;;;19.50;12.00;;;;;;;-150.27;100.00;61272.81;5208788;28;20030;-71
2022/04/13 10:35:45;;;;;;;17.37;12.43;;;;;;;-150.27;100.00;61272.81;5207954;28;20109;-71
2022/04/13 10:38:16;;;;;;;22.43;13.47;;;;;;;-150.27;100.00;61272.81;5207818;28;20026;-72
2022/04/13 10:40:50;;;;;;;18.07;11.77;;;;;;;-150.27;100.00;61272.81;5208423;28;20625;-71
2022/04/13 10:43:24;;;;;;;16.13;12.32;;;;;;;-150.27;100.00;61272.81;5211118;28;20014;-71
2022/04/13 10:45:56;;;;;;;17.73;12.60;;;;;;;-150.27;100.00;61272.81;5208524;28;20030;-71
2022/04/13 10:48:32;;;;;;;19.07;12.53;;;;;;;-150.27;100.00;61272.81;5207901;28;20033;-72
2022/04/13 10:51:11;;;;;;;19.80;12.73;;;;;;;-150.27;100.00;61272.81;5206850;28;20396;-71
2022/04/13 10:53:53;;;;;;;17.43;13.17;;;;;;;-150.27;100.00;61272.81;5205474;28;20512;-74
2022/04/13 10:56:27;;;;;;;25.03;14.73;;;;;;;-150.27;100.00;61272.81;5205873;28;20033;-72
2022/04/13 10:59:04;;;;;;;;;;;;;;;-150.27;100.00;61272.81;5205985;28;20021;-70
2022/04/13 11:01:42;;;;;;;22.40;14.83;;;;;;;-150.27;100.00;61272.81;5208063;28;20265;-70
2022/04/13 11:04:15;;;;;;;19.70;15.63;;;;;;;-150.27;100.00;61272.81;5208457;28;20111;-71
2022/04/13 11:06:47;;;;;;;23.15;15.45;;;;;;;-150.27;100.00;61272.81;5208862;28;20519;-71
2022/04/13 11:09:26;;;;;;;20.13;17.13;;;;;;;-150.27;100.00;61272.81;5208083;28;20041;-71
2022/04/13 11:12:01;;;;;;;31.60;19.03;;;;;;;-150.27;100.00;61272.81;5208715;28;20038;-74
2022/04/13 11:14:47;;;;;;;19.85;17.95;;;;;;;-150.27;100.00;61272.81;5208029;28;20133;-74
2022/04/13 11:17:18;;;;;;;28.37;18.90;;;;;;;-150.27;100.00;61272.81;5207494;28;20026;-73
2022/04/13 11:19:49;;;;;;;20.50;17.43;;;;;;;-150.27;100.00;61272.81;5207942;28;20034;-74
2022/04/13 11:22:20;;;;;;;21.23;18.67;;;;;;;-150.27;100.00;61272.81;5205641;28;20137;-74